This is the latest recevied weather packets stored in our database for station/object KB1LTW-13. If no packets are shown the sender has not sent any weather packets the latest 10 day(s).
| Time | Temp. | Humidity | Pressure | Rain* | Wind** | Luminosity | Snow |
|---|---|---|---|---|---|---|---|
| 1777705906 | 7.78° C | 90% | 1013.3 hPa | 0 mm | - | 0 W/m² | - |
| 1777703477 | 7.78° C | 87% | 1013.7 hPa | 0 mm | - | 0 W/m² | - |
| 1777702301 | 8.33° C | 84% | 1013.6 hPa | 0 mm | - | 0 W/m² | - |
| 1777700476 | 8.89° C | 79% | 1013.5 hPa | 0 mm | - | 0 W/m² | - |
| 1777695081 | 8.89° C | 72% | 1013.8 hPa | 0 mm | - | 0 W/m² | - |
| 1777694476 | 8.89° C | 71% | 1013.7 hPa | 0 mm | - | 0 W/m² | - |
| 1777693278 | 9.44° C | 71% | 1014 hPa | 0 mm | - | 0 W/m² | - |
| 1777692076 | 9.44° C | 65% | 1014 hPa | 0 mm | - | 0 W/m² | - |
| 1777686680 | 10.56° C | 58% | 1014 hPa | 0 mm | - | 0 W/m² | - |
| 1777684284 | 11.67° C | 52% | 1013.6 hPa | 0 mm | - | 0 W/m² | - |
| 1777683121 | 11.67° C | 50% | 1013.6 hPa | 0 mm | - | 0 W/m² | - |
| 1777680092 | 12.78° C | 47% | 1012.8 hPa | 0 mm | - | 0 W/m² | - |
| 1777676477 | 13.89° C | 39% | 1012.2 hPa | 0 mm | - | 26 W/m² | - |
| 1777671076 | 16.11° C | 32% | 1012 hPa | 0 mm | - | 236 W/m² | - |
| 1777669877 | 15.56° C | 34% | 1012.1 hPa | 0 mm | - | 57 W/m² | - |
| 1777669279 | 16.11° C | 34% | 1012.1 hPa | 0 mm | - | 47 W/m² | - |
| 1777658481 | 15.56° C | 34% | 1012.8 hPa | 0 mm | - | 548 W/m² | - |
| 1777657878 | 15° C | 36% | 1013 hPa | 0 mm | - | 331 W/m² | - |
| 1777656080 | 14.44° C | 36% | 1013 hPa | 0 mm | - | 810 W/m² | - |
| 1777654901 | 14.44° C | 35% | 1013.2 hPa | 0 mm | - | 833 W/m² | - |
| 1777651878 | 13.33° C | 39% | 1013.4 hPa | 0 mm | - | 800 W/m² | - |
| 1777649501 | 12.78° C | 41% | 1013.6 hPa | 0 mm | - | 766 W/m² | - |
| 1777648882 | 12.22° C | 42% | 1013.6 hPa | 0 mm | - | 768 W/m² | - |
| 1777648280 | 12.22° C | 42% | 1013.7 hPa | 0 mm | - | 741 W/m² | - |
| 1777645284 | 10.56° C | 51% | 1013.8 hPa | 0 mm | - | 685 W/m² | - |
* Rain latest hour (hover to see other rain measurements)
** Current wind speed in m/s (hover to see current wind gust speed)